Weather observations for the past three days for
Sebring Regional Airport
Metric (Imperial)
Date Time (edt) Wind (kph) Vis. (km) Weather Sky Cond. Temperature (ºC) Relative Humidity Wind Chill (°C) Heat Index (°C) Pressure Precipitation (cm)
Air Dwpt 6 hour altimeter (cm) sea level (mb) 1 hr 3 hr 6 hr
Max. Min.
07 05:35 S 9 16.09 Fair CLR 20.5 18.6 89% 76.2 0.0
07 05:15 S 7 16.09 Fair CLR 20.5 19.1 92% 76.2 0.0
07 04:55 Calm 16.09 Fair CLR 19.3 18.2 93% 76.17 0.0
07 04:35 Calm 16.09 Fair CLR 20.2 18.9 92% 76.15 0.0
07 04:15 Calm 16.09 Fair CLR 19.9 18.6 92% 76.15 0.0
07 03:55 Calm 16.09 Fair CLR 20 18.5 91% 76.15 0.0
07 03:35 Calm 16.09 Fair CLR 20.6 18.9 90% 76.15 0.0
07 03:15 Calm 16.09 Fair CLR 20.9 18.6 87% 76.15 0.0
07 02:55 Calm 16.09 Fair CLR 20.7 18.4 87% 76.17 0.0
07 02:35 Calm 16.09 Fair CLR 21.3 18.7 85% 76.2 0.0
07 02:15 Calm 16.09 Fair CLR 21.3 18.7 85% 76.23 0.0
07 01:55 Calm 16.09 Fair CLR 21.6 18.7 30 20.8 84% 76.25 0.0
07 01:35 Calm 16.09 Fair CLR 21.6 18.8 84% 76.25 0.0
07 01:15 Calm 16.09 Fair CLR 22.8 18.7 78% 76.3 0.0
07 00:55 SE 6 16.09 Fair CLR 23.5 19.1 76% 76.28 0.0
07 00:35 SE 7 16.09 Fair CLR 23.7 19 75% 76.3 0.0
07 00:15 SE 9 16.09 Fair CLR 23.6 18.6 74% 76.3 0.0
06 23:55 S 7 16.09 Fair CLR 24.2 18.5 71% 25 76.3 0.0
06 23:15 S 9 16.09 Fair CLR 24.5 17.6 66% 26 76.3 0.0
06 22:55 S 9 0.00 Fair CLR 24.4 17.5 66% 25 76.3 0.0
06 22:35 S 7 16.09 Fair CLR 25.4 17.2 61% 26 76.3 0.0
06 22:15 S 7 16.09 Fair CLR 25.5 17.1 60% 26 76.3 0.0
06 21:55 S 11 16.09 Fair CLR 25.6 17.1 59% 27 76.3 0.0
06 21:35 S 9 0.00 Fair CLR 26 17 58% 27 76.28 0.0
06 21:15 SE 11 16.09 Fair CLR 26.7 17.4 57% 28 76.23 0.0
06 20:55 SE 15 16.09 Fair CLR 28 17 51% 29 76.23 0.0
06 20:35 E 22 16.09 Fair CLR 28.3 17.3 51% 29 76.2 0.0
06 20:15 SE 9 16.09 Fair CLR 29.2 18.7 53% 30 76.17 0.0
06 19:55 SE 9 16.09 Fair CLR 30.2 18.1 33.9 30.1 48% 31 76.17 0.0
06 19:35 SE 7 16.09 Fair CLR 31.4 17.5 43% 32 76.17 0.0
06 18:55 S 9 16.09 Fair CLR 32.4 16.2 38% 32 76.17 0.0
06 18:35 SE 11 16.09 Fair CLR 32.7 16.2 37% 33 76.17 0.0
06 18:15 SE 9 16.09 Fair CLR 32.7 16.7 38% 33 76.17 0.0
06 17:35 S 6 16.09 Fair CLR 33 15.7 35% 33 76.17 0.0
06 17:15 SE 13 16.09 Fair CLR 33.1 15.9 36% 33 76.17 0.0
06 16:55 SE 15 16.09 Fair CLR 33.3 15.5 34% 33 76.17 0.0
06 16:35 S 13 0.00 Fair CLR 33.2 15.3 34% 33 76.17 0.0
06 16:15 SE 11 16.09 Fair CLR 33 15.3 34% 33 76.17 0.0
06 15:55 SE 11 16.09 Fair CLR 33 15.5 35% 33 76.2 0.0
06 15:35 S 13 16.09 Fair CLR 33.1 16.3 36% 33 76.2 0.0
06 15:15 S 15 16.09 Fair CLR 33 17 38% 33 76.23 0.0
06 14:55 S 13 16.09 Fair CLR 32.8 16.7 38% 33 76.25 0.0
06 14:35 SE 11 0.00 Fair CLR 32.7 17.2 40% 33 76.25 0.0
06 14:15 S 15 16.09 Fair CLR 31.8 17.5 42% 32 76.28 0.0
06 13:55 S 17 16.09 Fair CLR 32.6 18.1 32.8 18.7 42% 34 76.3 0.0
06 13:35 S 9 16.09 Fair CLR 31.4 18.1 45% 32 76.3 0.0
06 13:15 Calm 16.09 Fair CLR 31.2 18.9 48% 33 0 0.0
06 12:55 Calm 16.09 Fair CLR 30.9 19.2 50% 32 76.33 0.0
06 12:35 S 17 16.09 Fair CLR 30.2 19.3 52% 32 76.33 0.0
06 12:15 Calm 16.09 Fair CLR 30.1 19.8 54% 32 76.35 0.0
06 11:55 S 17 16.09 Fair CLR 29.7 20.3 57% 32 76.35 0.0
06 11:35 S 13 16.09 Fair CLR 29.1 20.9 61% 31 76.35 0.0
06 11:15 S 13 16.09 Fair CLR 28.7 21.4 65% 31 76.38 0.0
06 10:55 SE 11 16.09 Fair CLR 27.8 21.5 69% 30 76.38 0.0
06 10:35 E 13 16.09 Fair CLR 27.2 21.9 73% 29 76.35 0.0
06 10:15 Calm 16.09 Fair CLR 27.1 22 74% 29 76.35 0.0
06 09:55 SE 17 16.09 Fair CLR 26.4 22 77% 28 76.35 0.0
06 09:35 SE 13 16.09 Fair CLR 25.4 21.6 80% 27 76.35 0.0
06 09:15 SE 17 16.09 Fair CLR 24.9 21.2 80% 26 76.33 0.0
06 08:55 E 13 16.09 Fair CLR 24.2 21.1 83% 24 76.33 0.0
06 08:35 E 11 16.09 Fair CLR 22.6 20.8 90% 76.3 0.0
06 07:55 E 6 5.63 Fog/Mist CLR 18 18 19.5 17.1 100% 76.3 0.0
06 07:35 Calm 11.27 Fair CLR 17.8 17.4 98% 76.28 0.0
06 07:15 E 7 8.05 Fog/Mist CLR 17.3 16.9 98% 76.25 0.0
06 06:55 Calm 0.00 NULL NULL 17.2 16.8 98% 76.25 0.0
06 06:35 NE 6 16.09 Fair CLR 17.3 16.7 96% 76.25 0.0
06 06:15 Calm 16.09 Fair CLR 17.6 16.8 95% 76.25 0.0
06 05:55 Calm 16.09 Fair CLR 17.9 17.1 95% 76.23 0.0
06 05:35 NE 6 16.09 Fair CLR 17.8 17.1 96% 76.23 0.0
06 05:15 NE 6 0.00 NULL NULL 18 17 94% 76.23 0.0
06 04:55 Calm 16.09 Fair CLR 18 17 94% 76.2 0.0
06 04:35 Calm 0.00 NULL NULL 18 17 94% 76.2 0.0
06 04:15 Calm 16.09 Fair CLR 18 17 94% 76.23 0.0
06 03:55 Calm 16.09 Fair CLR 18.3 17 92% 76.23 0.0
06 03:35 Calm 16.09 Fair CLR 18.2 17 93% 76.23 0.0
06 03:15 Calm 16.09 Fair CLR 18 17 94% 76.23 0.0
06 02:55 NE 6 16.09 Fair CLR 18.8 17.1 90% 76.25 0.0
06 02:35 Calm 16.09 Fair CLR 18.5 17.1 92% 76.25 0.0
06 02:15 NE 7 16.09 Fair CLR 19.1 17.2 89% 76.25 0.0
06 01:55 Calm 16.09 Fair CLR 19.3 17.2 25.3 19.1 88% 76.28 0.0
06 01:35 Calm 16.09 Fair CLR 19.5 17.3 87% 76.28 0.0
06 01:15 Calm 16.09 Fair CLR 19.4 17.1 87% 76.28 0.0
06 00:55 Calm 16.09 Fair CLR 20.3 17.2 82% 76.3 0.0
06 00:35 E 6 16.09 Fair CLR 20.3 17.1 82% 76.28 0.0
06 00:15 SE 6 16.09 Fair CLR 20 16.9 82% 76.28 0.0
05 23:55 Calm 16.09 Fair CLR 20.3 16.9 81% 76.3 0.0
05 23:35 E 6 16.09 Fair CLR 21.1 17 78% 76.3 0.0
05 23:15 Calm 16.09 Fair CLR 21 17 78% 76.3 0.0
05 22:55 Calm 16.09 Fair CLR 21.3 16.7 75% 76.3 0.0
05 22:35 NE 7 16.09 Fair CLR 21 17 78% 76.3 0.0
05 22:15 Calm 16.09 Fair CLR 21.9 16.5 72% 76.28 0.0
05 21:55 E 7 16.09 Fair CLR 22.4 16.6 70% 76.28 0.0
05 21:35 E 6 16.09 Fair CLR 22.8 16.6 68% 76.25 0.0
05 21:15 E 9 16.09 Fair CLR 22.9 16.4 67% 76.23 0.0
05 20:55 E 11 16.09 Fair CLR 23.3 16.3 65% 76.2 0.0
05 20:35 E 15 16.09 Fair CLR 23.9 16.5 63% 25 76.17 0.0
05 20:15 E 17 16.09 Fair CLR 25 17 61% 26 76.15 0.0
05 19:55 E 19 16.09 Partly Cloudy SCT055 25.4 16.7 31.5 25.3 59% 26 76.15 0.0
05 19:35 E 19 16.09 Partly Cloudy SCT055 26.1 16.8 57% 27 76.15 0.0
05 19:15 E 22 16.09 Partly Cloudy SCT050 SCT060 26.7 17 55% 27 76.15 0.0
05 18:55 E 24 16.09 Partly Cloudy SCT050 SCT060 27.7 17.4 53% 28 76.15 0.0
05 18:35 Calm 16.09 Fair CLR 28 17.7 54% 29 76.15 0.0
05 18:15 E 20 16.09 Mostly Cloudy SCT049 SCT060 BKN070 28.4 17.8 53% 29 76.12 0.0
05 17:55 E 20 16.09 Mostly Cloudy SCT049 SCT060 BKN075 28.5 17.7 52% 29 76.12 0.0
05 17:35 E 15 16.09 Overcast SCT055 OVC085 29 17 48% 29 76.12 0.0
05 17:15 E 17 16.09 Overcast BKN055 OVC080 28.6 17.5 51% 29 76.12 0.0
05 16:55 E 19 16.09 Overcast BKN055 OVC080 28.9 17.6 50% 30 76.12 0.0
05 16:35 E 22 16.09 Mostly Cloudy SCT060 BKN075 29.6 17.8 49% 30 76.1 0.0
05 16:15 NE 15 16.09 Mostly Cloudy BKN055 BKN080 30.9 17.9 46% 32 76.1 0.0
05 15:55 NE 17 G 26 0.00 Partly Cloudy SCT055 30 18 49% 31 76.12 0.0
05 15:35 NE 15 G 26 16.09 Partly Cloudy SCT050 30.8 17.4 45% 31 76.12 0.0
05 15:15 E 19 16.09 Partly Cloudy SCT050 30.6 17.5 45% 31 76.12 0.0
05 14:55 NE 15 16.09 Partly Cloudy SCT080 30.2 17.5 47% 31 76.15 0.0
05 14:35 Calm 16.09 Partly Cloudy SCT049 SCT080 30.5 17.9 47% 31 76.17 0.0
05 14:15 NE 20 16.09 Partly Cloudy SCT049 SCT080 29.6 17.9 49% 30 76.2 0.0
05 13:55 NE 17 16.09 Partly Cloudy SCT050 SCT070 30.1 18 30.7 19.1 48% 31 76.23 0.0
05 13:35 N 17 16.09 Mostly Cloudy SCT050 BKN060 29.7 18.2 50% 31 76.23 0.0
05 12:55 Calm 16.09 Mostly Cloudy SCT044 BKN060 29.1 17.9 51% 30 76.23 0.0
05 12:35 NE 19 16.09 Mostly Cloudy SCT044 SCT060 BKN070 29 18.3 52% 30 76.23 0.0
05 12:15 E 11 16.09 Mostly Cloudy SCT045 BKN050 28 18 55% 29 76.25 0.0
05 11:55 E 15 16.09 Overcast SCT045 BKN055 OVC065 28.1 17.8 54% 29 76.25 0.0
05 11:35 NE 13 16.09 Overcast BKN048 OVC065 27.6 18.2 57% 29 76.28 0.0
05 11:15 E 17 16.09 Mostly Cloudy BKN050 BKN065 27.1 17.9 57% 28 76.28 0.0
05 10:55 Calm 16.09 Partly Cloudy SCT050 27 18 58% 28 76.25 0.0
05 10:35 E 22 16.09 Mostly Cloudy BKN050 26.5 18.3 61% 28 76.25 0.0
05 10:15 E 19 16.09 Partly Cloudy SCT050 26.4 18.3 61% 27 76.25 0.0
05 09:55 E 22 16.09 Partly Cloudy SCT045 SCT050 25.5 18.5 65% 27 76.25 0.0
05 09:35 Calm 16.09 Overcast OVC045 24.8 18.8 69% 26 76.25 0.0
05 09:15 Calm 16.09 Mostly Cloudy BKN044 23.2 18.8 76% 76.23 0.0
05 08:35 Calm 16.09 Overcast BKN045 BKN060 OVC080 21.7 18.9 84% 76.25 0.0
05 08:15 NE 13 16.09 Overcast BKN045 OVC065 20.5 18.9 91% 76.23 0.0
05 07:55 NE 7 16.09 Overcast BKN047 OVC070 18.9 18 19.1 16.9 95% 76.23 0.0
05 07:15 Calm 16.09 Mostly Cloudy BKN045 17.8 17 95% 0 0.0
05 06:55 Calm 16.09 Partly Cloudy SCT070 17.5 16.8 96% 76.15 0.0
05 06:35 NE 7 16.09 Partly Cloudy SCT070 17.3 16.7 96% 76.15 0.0
05 06:15 NE 9 16.09 Partly Cloudy SCT065 17.1 16.7 98% 76.15 0.0
05 05:55 N 6 16.09 Fair CLR 17.2 16.7 97% 76.12 0.0
05 05:35 Calm 16.09 Fair CLR 17.8 17.1 96% 76.12 0.0
05 05:15 Calm 16.09 Fair CLR 17.9 17.1 95% 76.12 0.0
05 04:55 Calm 16.09 Fair CLR 18 17 94% 76.1 0.0
05 04:35 N 6 0.00 NULL NULL 17.8 17 95% 76.1 0.0
05 04:15 NE 7 16.09 Fair CLR 18 17 94% 76.1 0.0
05 03:55 NE 7 16.09 Fair CLR 18 17.2 95% 76.1 0.0
05 03:35 Calm 0.00 NULL NULL 18.1 17.3 95% 76.12 0.0
05 03:15 Calm 16.09 Fair CLR 18.1 17.2 95% 76.12 0.0
05 02:55 N 6 16.09 Fair CLR 18.5 17.4 93% 76.15 0.0
05 02:35 Calm 16.09 Fair CLR 18.5 17.4 93% 76.17 0.0
05 02:15 NE 9 16.09 Fair CLR 19 17 88% 76.17 0.0
05 01:55 NE 7 16.09 Fair CLR 18.6 17.4 23.6 18.3 93% 76.17 0.0
05 01:35 NE 7 16.09 Fair CLR 18.5 17.3 93% 76.2 0.0
05 01:15 NE 7 16.09 Fair CLR 18.3 17.1 93% 76.23 0.0
05 00:55 NE 11 16.09 Fair CLR 18.4 17.2 93% 76.2 0.0
05 00:35 NE 6 16.09 Fair CLR 18.8 17.4 92% 76.23 0.0
05 00:15 Calm 16.09 Fair CLR 19 17 88% 76.2 0.0
04 23:55 NE 7 16.09 Fair CLR 19.2 17.4 89% 76.23 0.0
04 23:35 NE 7 16.09 Fair CLR 19.6 17.5 88% 76.25 0.0
04 23:15 NE 7 16.09 Fair CLR 19.9 17.6 87% 76.23 0.0
04 22:55 E 9 16.09 Fair CLR 20.1 17.5 85% 76.25 0.0
04 22:35 E 7 16.09 Fair CLR 20.2 17.6 85% 76.25 0.0
04 22:15 E 9 16.09 Partly Cloudy SCT028 SCT040 20.4 17.6 84% 76.23 0.0
04 21:55 E 9 16.09 Partly Cloudy SCT028 SCT040 20.9 17.7 82% 76.23 0.0
04 21:35 E 11 16.09 Fair CLR 21.3 17.7 80% 76.23 0.0
04 21:15 E 13 16.09 Fair CLR 21.5 17.7 79% 76.2 0.0
04 20:55 E 13 16.09 Partly Cloudy SCT049 22.1 17.8 77% 76.23 0.0
04 20:35 E 15 16.09 Mostly Cloudy SCT033 SCT039 BKN049 22.6 17.8 74% 76.17 0.0
04 20:15 E 15 16.09 Mostly Cloudy SCT035 BKN048 BKN050 23.1 17.8 72% 76.17 0.0
04 19:55 E 20 0.00 Mostly Cloudy BKN050 BKN065 23.7 17.8 28.8 23.6 70% 76.15 0.0
04 19:35 Calm 16.09 Mostly Cloudy SCT037 BKN046 BKN055 24.2 17.8 68% 25 76.12 0.0
04 19:15 E 26 16.09 Overcast SCT036 BKN049 OVC060 24.6 17.8 66% 26 76.12 0.0
04 18:55 E 26 16.09 Overcast SCT037 OVC050 25 17.9 65% 26 76.12 0.0
04 18:35 E 28 16.09 Mostly Cloudy BKN035 BKN042 BKN050 25.3 17.8 63% 26 76.12 0.0
04 18:15 E 20 16.09 Partly Cloudy SCT050 SCT065 26.1 18.1 61% 27 76.1 0.0
04 17:55 E 28 16.09 Mostly Cloudy SCT035 SCT041 BKN050 25.6 18 63% 27 76.12 0.0
04 17:35 E 26 16.09 Mostly Cloudy SCT038 BKN047 27 18.1 58% 28 76.1 0.0
04 17:15 E 26 16.09 Mostly Cloudy SCT038 BKN049 26.1 18 61% 27 76.12 0.0
04 16:55 E 28 16.09 Mostly Cloudy SCT039 BKN048 27.5 18.1 57% 28 76.12 0.0
04 16:35 NE 28 G 37 16.09 Partly Cloudy SCT039 SCT049 27.6 18.4 57% 29 76.12 0.0
04 16:15 E 24 G 37 16.09 Mostly Cloudy SCT041 BKN049 BKN070 27.2 18.1 58% 28 76.12 0.0
04 15:55 E 26 16.09 Mostly Cloudy SCT041 BKN055 BKN065 27.8 18 55% 29 76.12 0.0
04 15:35 E 28 16.09 Partly Cloudy SCT042 SCT050 SCT065 27.6 18.1 56% 29 76.15 0.0
04 15:15 NE 26 16.09 Mostly Cloudy BKN042 BKN050 BKN065 28.2 17.8 53% 29 76.17 0.0
04 14:55 E 26 16.09 Mostly Cloudy BKN042 BKN047 BKN055 27 18 58% 28 76.2 0.0
04 14:35 NE 26 16.09 Mostly Cloudy SCT042 BKN055 BKN070 28.4 17.9 53% 29 76.2 0.0
04 14:15 E 24 16.09 Mostly Cloudy BKN042 BKN050 27.4 17.7 55% 28 76.23 0.0
04 13:55 E 24 16.09 Mostly Cloudy SCT040 BKN050 27.6 17.9 28.5 21.2 56% 28 76.23 0.0
04 13:35 NE 26 G 46 11.27 Mostly Cloudy SCT040 BKN048 BKN060 27 18 58% 28 76.25 0.0
04 13:15 NE 26 0.00 NULL NULL 0 0 0% 76.28 0.0
04 12:55 Calm 0.00 Overcast SCT036 BKN046 OVC055 27 18 58% 28 0 0.0
04 12:35 NE 22 16.09 Overcast SCT036 SCT044 OVC050 26.8 18 59% 28 76.3 0.0
04 12:15 NE 24 16.09 Overcast SCT042 OVC050 27 17.5 56% 28 76.3 0.0
04 11:55 NE 19 G 31 16.09 Mostly Cloudy BKN042 BKN047 BKN055 27.4 17.3 54% 28 76.3 0.0
04 11:35 NE 26 16.09 Mostly Cloudy BKN041 BKN055 26.8 16.9 55% 28 76.3 0.0
04 11:15 NE 26 16.09 Mostly Cloudy BKN040 BKN050 26.9 17 55% 28 76.3 0.0
04 10:55 NE 26 16.09 Mostly Cloudy SCT039 BKN049 26.4 16.9 56% 27 76.3 0.0
04 10:35 NE 20 0.00 Partly Cloudy SCT049 25.7 16 55% 26 76.3 0.0
04 10:15 NE 24 16.09 Partly Cloudy SCT038 25.3 16.2 57% 26 76.3 0.0
04 09:55 NE 24 16.09 Partly Cloudy SCT050 24.8 17.2 63% 26 76.3 0.0
04 09:35 NE 22 16.09 Mostly Cloudy BKN050 23.2 17.2 69% 76.28 0.0
04 09:15 NE 20 16.09 Overcast OVC050 22.9 17.1 70% 76.28 0.0
04 08:55 NE 19 16.09 Overcast OVC047 23 17 69% 76.28 0.0
04 08:35 NE 17 16.09 Mostly Cloudy BKN043 BKN050 22.3 17.4 74% 76.25 0.0
04 08:15 N 17 16.09 Mostly Cloudy BKN041 21.4 17.1 77% 76.25 0.0
04 07:55 N 15 16.09 Overcast OVC039 21 17 21.1 19.6 78% 76.23 0.0
04 07:35 Calm 16.09 Mostly Cloudy BKN040 BKN046 BKN050 21 17 78% 76.23 0.0
04 07:15 Calm 16.09 Mostly Cloudy SCT037 BKN049 20 17.2 84% 76.2 0.0
04 06:55 Calm 16.09 Overcast SCT036 OVC048 20 17.3 85% 76.17 0.0
04 06:35 N 11 16.09 Overcast SCT039 OVC047 20.1 17.3 84% 76.17 0.0
04 06:15 N 11 16.09 Overcast BKN035 OVC043 20 17 83% 76.15 0.0
04 05:55 N 15 16.09 Overcast OVC033 20.2 17.5 85% 76.15 0.0
Date Time (edt) Wind (kph) Vis. (km) Weather Sky Cond. Air Dwpt Max. Min. Relative Humidity Wind Chill (°C) Heat Index (°C) altimeter (cm) sea level (mb) 1 hr 3 hr 6 hr
6 hour
Temperature (ºC) Pressure Precipitation (cm)